sensor_id;sensor_type;location;lat;lon;timestamp;pressure;altitude;pressure_sealevel;temperature;humidity
45523;BME280;31254;51.680;5.394;2023-06-10T00:00:04;101414.66;;;22.90;48.29
45523;BME280;31254;51.680;5.394;2023-06-10T00:02:32;101421.25;;;22.89;48.29
45523;BME280;31254;51.680;5.394;2023-06-10T00:05:01;101400.59;;;22.71;48.65
45523;BME280;31254;51.680;5.394;2023-06-10T00:07:30;101429.00;;;22.80;48.51
45523;BME280;31254;51.680;5.394;2023-06-10T00:09:57;101427.09;;;22.74;48.73
45523;BME280;31254;51.680;5.394;2023-06-10T00:12:24;101410.03;;;22.57;48.92
45523;BME280;31254;51.680;5.394;2023-06-10T00:14:51;101425.41;;;22.66;48.56
45523;BME280;31254;51.680;5.394;2023-06-10T00:17:20;101423.06;;;22.63;48.79
45523;BME280;31254;51.680;5.394;2023-06-10T00:19:50;101427.97;;;22.61;49.24
45523;BME280;31254;51.680;5.394;2023-06-10T00:22:19;101427.75;;;22.56;49.28
45523;BME280;31254;51.680;5.394;2023-06-10T00:24:45;101429.28;;;22.52;49.22
45523;BME280;31254;51.680;5.394;2023-06-10T00:27:14;101398.69;;;22.32;49.42
45523;BME280;31254;51.680;5.394;2023-06-10T00:29:40;101424.38;;;22.40;49.46
45523;BME280;31254;51.680;5.394;2023-06-10T00:32:07;101404.22;;;22.25;49.47
45523;BME280;31254;51.680;5.394;2023-06-10T00:34:36;101381.34;;;22.03;49.83
45523;BME280;31254;51.680;5.394;2023-06-10T00:37:03;101429.66;;;22.28;49.82
45523;BME280;31254;51.680;5.394;2023-06-10T00:39:30;101425.41;;;22.19;49.94
45523;BME280;31254;51.680;5.394;2023-06-10T00:41:57;101435.63;;;22.19;50.11
45523;BME280;31254;51.680;5.394;2023-06-10T00:44:23;101437.38;;;22.13;50.24
45523;BME280;31254;51.680;5.394;2023-06-10T00:46:50;101436.06;;;22.09;50.60
45523;BME280;31254;51.680;5.394;2023-06-10T00:49:21;101420.91;;;21.98;50.50
45523;BME280;31254;51.680;5.394;2023-06-10T00:51:48;101414.88;;;21.88;50.89
45523;BME280;31254;51.680;5.394;2023-06-10T00:54:15;101428.78;;;21.95;50.99
45523;BME280;31254;51.680;5.394;2023-06-10T00:56:42;101434.34;;;21.95;51.04
45523;BME280;31254;51.680;5.394;2023-06-10T00:59:09;101433.69;;;21.86;51.04
45523;BME280;31254;51.680;5.394;2023-06-10T01:01:36;101444.16;;;21.84;51.41
45523;BME280;31254;51.680;5.394;2023-06-10T01:04:04;101442.00;;;21.79;51.44
45523;BME280;31254;51.680;5.394;2023-06-10T01:06:50;101431.53;;;21.75;51.61
45523;BME280;31254;51.680;5.394;2023-06-10T01:09:32;101440.69;;;21.68;51.64
45523;BME280;31254;51.680;5.394;2023-06-10T01:12:20;101445.19;;;21.63;51.95
45523;BME280;31254;51.680;5.394;2023-06-10T01:14:50;101436.84;;;21.56;51.96
45523;BME280;31254;51.680;5.394;2023-06-10T01:17:18;101407.69;;;21.39;52.21
45523;BME280;31254;51.680;5.394;2023-06-10T01:19:53;101424.00;;;21.48;52.36
45523;BME280;31254;51.680;5.394;2023-06-10T01:22:26;101419.66;;;21.39;52.51
45523;BME280;31254;51.680;5.394;2023-06-10T01:24:58;101438.84;;;21.34;52.75
45523;BME280;31254;51.680;5.394;2023-06-10T01:27:30;101444.81;;;21.37;53.01
45523;BME280;31254;51.680;5.394;2023-06-10T01:30:12;101449.94;;;21.34;52.90
45523;BME280;31254;51.680;5.394;2023-06-10T01:32:48;101428.13;;;21.24;53.19
45523;BME280;31254;51.680;5.394;2023-06-10T01:35:21;101443.75;;;21.32;53.52
45523;BME280;31254;51.680;5.394;2023-06-10T01:37:53;101418.69;;;21.12;53.55
45523;BME280;31254;51.680;5.394;2023-06-10T01:40:25;101435.53;;;21.10;53.58
45523;BME280;31254;51.680;5.394;2023-06-10T01:42:53;101426.75;;;21.07;53.75
45523;BME280;31254;51.680;5.394;2023-06-10T01:45:20;101439.13;;;21.04;53.99
45523;BME280;31254;51.680;5.394;2023-06-10T01:47:46;101426.72;;;21.00;54.25
45523;BME280;31254;51.680;5.394;2023-06-10T01:50:13;101434.81;;;20.95;54.38
45523;BME280;31254;51.680;5.394;2023-06-10T01:52:40;101449.56;;;21.02;54.43
45523;BME280;31254;51.680;5.394;2023-06-10T01:55:09;101451.69;;;21.00;54.42
45523;BME280;31254;51.680;5.394;2023-06-10T01:57:36;101452.75;;;20.99;54.43
45523;BME280;31254;51.680;5.394;2023-06-10T02:00:05;101443.78;;;20.97;54.79
45523;BME280;31254;51.680;5.394;2023-06-10T02:02:32;101453.59;;;20.93;54.99
45523;BME280;31254;51.680;5.394;2023-06-10T02:04:59;101448.66;;;20.88;54.90
45523;BME280;31254;51.680;5.394;2023-06-10T02:07:28;101434.22;;;20.71;55.05
45523;BME280;31254;51.680;5.394;2023-06-10T02:09:54;101453.06;;;20.82;55.43
45523;BME280;31254;51.680;5.394;2023-06-10T02:12:21;101456.44;;;20.78;55.49
45523;BME280;31254;51.680;5.394;2023-06-10T02:14:50;101440.38;;;20.67;55.38
45523;BME280;31254;51.680;5.394;2023-06-10T02:17:17;101451.25;;;20.68;55.81
45523;BME280;31254;51.680;5.394;2023-06-10T02:19:44;101447.84;;;20.66;55.82
45523;BME280;31254;51.680;5.394;2023-06-10T02:22:23;101452.06;;;20.62;56.11
45523;BME280;31254;51.680;5.394;2023-06-10T02:24:50;101452.25;;;20.60;56.34
45523;BME280;31254;51.680;5.394;2023-06-10T02:27:17;101451.59;;;20.58;56.17
45523;BME280;31254;51.680;5.394;2023-06-10T02:29:44;101440.84;;;20.49;56.18
45523;BME280;31254;51.680;5.394;2023-06-10T02:32:11;101463.28;;;20.54;56.61
45523;BME280;31254;51.680;5.394;2023-06-10T02:34:37;101456.19;;;20.44;56.79
45523;BME280;31254;51.680;5.394;2023-06-10T02:37:04;101439.91;;;20.35;56.69
45523;BME280;31254;51.680;5.394;2023-06-10T02:39:31;101447.16;;;20.36;57.06
45523;BME280;31254;51.680;5.394;2023-06-10T02:41:58;101460.16;;;20.35;57.04
45523;BME280;31254;51.680;5.394;2023-06-10T02:44:25;101464.84;;;20.35;56.96
45523;BME280;31254;51.680;5.394;2023-06-10T02:46:54;101450.84;;;20.21;57.33
45523;BME280;31254;51.680;5.394;2023-06-10T02:49:23;101465.19;;;20.25;57.42
45523;BME280;31254;51.680;5.394;2023-06-10T02:51:50;101457.91;;;20.24;57.58
45523;BME280;31254;51.680;5.394;2023-06-10T02:54:20;101459.16;;;20.21;57.52
45523;BME280;31254;51.680;5.394;2023-06-10T02:56:47;101455.94;;;20.18;57.60
45523;BME280;31254;51.680;5.394;2023-06-10T02:59:14;101457.22;;;20.15;57.91
45523;BME280;31254;51.680;5.394;2023-06-10T03:01:45;101451.63;;;20.08;57.93
45523;BME280;31254;51.680;5.394;2023-06-10T03:04:12;101460.78;;;20.09;58.28
45523;BME280;31254;51.680;5.394;2023-06-10T03:06:40;101435.94;;;19.94;58.13
45523;BME280;31254;51.680;5.394;2023-06-10T03:09:12;101454.91;;;19.97;58.50
45523;BME280;31254;51.680;5.394;2023-06-10T03:11:43;101443.28;;;19.87;58.77
45523;BME280;31254;51.680;5.394;2023-06-10T03:14:09;101453.97;;;19.90;58.57
45523;BME280;31254;51.680;5.394;2023-06-10T03:16:36;101455.13;;;19.81;58.79
45523;BME280;31254;51.680;5.394;2023-06-10T03:19:07;101463.44;;;19.81;59.31
45523;BME280;31254;51.680;5.394;2023-06-10T03:21:34;101475.66;;;19.86;59.21
45523;BME280;31254;51.680;5.394;2023-06-10T03:24:01;101473.47;;;19.82;59.07
45523;BME280;31254;51.680;5.394;2023-06-10T03:26:30;101475.50;;;19.73;59.49
45523;BME280;31254;51.680;5.394;2023-06-10T03:28:59;101465.25;;;19.73;59.44
45523;BME280;31254;51.680;5.394;2023-06-10T03:31:28;101470.72;;;19.67;59.58
45523;BME280;31254;51.680;5.394;2023-06-10T03:33:56;101469.66;;;19.68;59.75
45523;BME280;31254;51.680;5.394;2023-06-10T03:36:22;101478.16;;;19.66;59.75
45523;BME280;31254;51.680;5.394;2023-06-10T03:38:51;101469.38;;;19.63;59.68
45523;BME280;31254;51.680;5.394;2023-06-10T03:41:18;101483.09;;;19.71;59.56
45523;BME280;31254;51.680;5.394;2023-06-10T03:43:47;101474.06;;;19.62;59.57
45523;BME280;31254;51.680;5.394;2023-06-10T03:46:14;101491.41;;;19.71;59.43
45523;BME280;31254;51.680;5.394;2023-06-10T03:48:41;101492.47;;;19.70;59.61
45523;BME280;31254;51.680;5.394;2023-06-10T03:51:08;101483.50;;;19.68;59.43
45523;BME280;31254;51.680;5.394;2023-06-10T03:53:35;101488.97;;;19.76;59.48
45523;BME280;31254;51.680;5.394;2023-06-10T03:56:02;101464.63;;;19.57;59.30
45523;BME280;31254;51.680;5.394;2023-06-10T03:58:29;101480.06;;;19.66;59.49
45523;BME280;31254;51.680;5.394;2023-06-10T04:00:55;101486.75;;;19.71;59.70
45523;BME280;31254;51.680;5.394;2023-06-10T04:03:25;101491.22;;;19.72;59.69
45523;BME280;31254;51.680;5.394;2023-06-10T04:05:57;101477.19;;;19.74;59.50
45523;BME280;31254;51.680;5.394;2023-06-10T04:08:25;101492.28;;;19.86;59.68
45523;BME280;31254;51.680;5.394;2023-06-10T04:10:52;101495.44;;;20.05;58.96
45523;BME280;31254;51.680;5.394;2023-06-10T04:13:19;101496.75;;;20.74;57.26
45523;BME280;31254;51.680;5.394;2023-06-10T04:15:46;101491.38;;;21.42;55.39
45523;BME280;31254;51.680;5.394;2023-06-10T04:18:12;101490.78;;;22.15;53.69
45523;BME280;31254;51.680;5.394;2023-06-10T04:20:39;101491.28;;;22.59;52.49
45523;BME280;31254;51.680;5.394;2023-06-10T04:23:06;101493.81;;;23.00;51.35
45523;BME280;31254;51.680;5.394;2023-06-10T04:25:33;101488.81;;;23.36;50.42
45523;BME280;31254;51.680;5.394;2023-06-10T04:28:00;101489.56;;;23.63;49.70
45523;BME280;31254;51.680;5.394;2023-06-10T04:30:26;101487.72;;;23.89;49.11
45523;BME280;31254;51.680;5.394;2023-06-10T04:32:57;101489.78;;;24.32;48.38
45523;BME280;31254;51.680;5.394;2023-06-10T04:35:26;101486.34;;;24.62;47.70
45523;BME280;31254;51.680;5.394;2023-06-10T04:37:54;101480.78;;;25.06;46.38
45523;BME280;31254;51.680;5.394;2023-06-10T04:40:21;101488.25;;;25.67;45.08
45523;BME280;31254;51.680;5.394;2023-06-10T04:42:47;101492.22;;;26.08;44.82
45523;BME280;31254;51.680;5.394;2023-06-10T04:45:14;101484.88;;;26.38;43.86
45523;BME280;31254;51.680;5.394;2023-06-10T04:47:46;101499.03;;;26.90;43.20
45523;BME280;31254;51.680;5.394;2023-06-10T04:50:12;101488.81;;;27.08;42.28
45523;BME280;31254;51.680;5.394;2023-06-10T04:52:39;101505.25;;;27.40;41.65
45523;BME280;31254;51.680;5.394;2023-06-10T04:55:08;101488.88;;;27.60;41.39
45523;BME280;31254;51.680;5.394;2023-06-10T04:57:35;101502.00;;;28.00;40.58
45523;BME280;31254;51.680;5.394;2023-06-10T05:00:03;101504.03;;;28.34;39.84
45523;BME280;31254;51.680;5.394;2023-06-10T05:02:32;101506.72;;;28.74;39.05
45523;BME280;31254;51.680;5.394;2023-06-10T05:04:59;101498.88;;;28.93;38.83
45523;BME280;31254;51.680;5.394;2023-06-10T05:07:26;101497.78;;;29.16;38.32
45523;BME280;31254;51.680;5.394;2023-06-10T05:09:55;101504.97;;;29.24;38.27
45523;BME280;31254;51.680;5.394;2023-06-10T05:12:24;101491.47;;;29.43;37.99
45523;BME280;31254;51.680;5.394;2023-06-10T05:14:51;101494.91;;;29.72;37.19
45523;BME280;31254;51.680;5.394;2023-06-10T05:17:18;101491.84;;;30.01;36.93
45523;BME280;31254;51.680;5.394;2023-06-10T05:19:45;101507.06;;;30.27;36.27
45523;BME280;31254;51.680;5.394;2023-06-10T05:22:11;101500.47;;;30.44;35.69
45523;BME280;31254;51.680;5.394;2023-06-10T05:24:39;101500.19;;;30.78;35.42
45523;BME280;31254;51.680;5.394;2023-06-10T05:27:08;101503.63;;;30.90;34.93
45523;BME280;31254;51.680;5.394;2023-06-10T05:29:35;101501.00;;;31.11;34.84
45523;BME280;31254;51.680;5.394;2023-06-10T05:32:02;101499.50;;;31.46;34.46
45523;BME280;31254;51.680;5.394;2023-06-10T05:34:30;101497.13;;;31.27;34.33
45523;BME280;31254;51.680;5.394;2023-06-10T05:36:59;101496.00;;;31.23;34.30
45523;BME280;31254;51.680;5.394;2023-06-10T05:39:26;101497.75;;;31.34;34.09
45523;BME280;31254;51.680;5.394;2023-06-10T05:41:53;101474.56;;;31.96;33.28
45523;BME280;31254;51.680;5.394;2023-06-10T05:44:22;101502.84;;;32.26;32.90
45523;BME280;31254;51.680;5.394;2023-06-10T05:46:48;101484.25;;;32.36;32.12
45523;BME280;31254;51.680;5.394;2023-06-10T05:49:15;101507.41;;;32.84;31.79
45523;BME280;31254;51.680;5.394;2023-06-10T05:51:42;101506.53;;;32.32;31.95
45523;BME280;31254;51.680;5.394;2023-06-10T05:54:08;101508.81;;;32.30;32.65
45523;BME280;31254;51.680;5.394;2023-06-10T05:56:35;101491.88;;;32.71;31.86
45523;BME280;31254;51.680;5.394;2023-06-10T05:59:04;101505.97;;;32.97;31.39
45523;BME280;31254;51.680;5.394;2023-06-10T06:01:33;101485.91;;;32.88;31.58
45523;BME280;31254;51.680;5.394;2023-06-10T06:04:00;101505.69;;;33.19;31.01
45523;BME280;31254;51.680;5.394;2023-06-10T06:06:26;101488.16;;;33.17;30.79
45523;BME280;31254;51.680;5.394;2023-06-10T06:08:53;101514.38;;;33.38;30.00
45523;BME280;31254;51.680;5.394;2023-06-10T06:11:20;101511.34;;;32.98;30.47
45523;BME280;31254;51.680;5.394;2023-06-10T06:13:47;101515.22;;;33.39;30.57
45523;BME280;31254;51.680;5.394;2023-06-10T06:16:18;101510.97;;;33.41;30.14
45523;BME280;31254;51.680;5.394;2023-06-10T06:18:47;101508.03;;;33.67;29.80
45523;BME280;31254;51.680;5.394;2023-06-10T06:21:16;101499.94;;;33.40;29.53
45523;BME280;31254;51.680;5.394;2023-06-10T06:23:43;101513.97;;;34.25;28.87
45523;BME280;31254;51.680;5.394;2023-06-10T06:26:12;101473.00;;;34.52;28.26
45523;BME280;31254;51.680;5.394;2023-06-10T06:28:41;101500.94;;;34.19;28.74
45523;BME280;31254;51.680;5.394;2023-06-10T06:31:08;101509.28;;;34.45;28.32
45523;BME280;31254;51.680;5.394;2023-06-10T06:33:37;101503.84;;;34.54;27.85
45523;BME280;31254;51.680;5.394;2023-06-10T06:36:04;101506.13;;;34.86;27.55
45523;BME280;31254;51.680;5.394;2023-06-10T06:38:31;101504.88;;;34.63;27.39
45523;BME280;31254;51.680;5.394;2023-06-10T06:40:58;101510.50;;;34.34;28.38
45523;BME280;31254;51.680;5.394;2023-06-10T06:43:29;101503.69;;;34.69;27.83
45523;BME280;31254;51.680;5.394;2023-06-10T06:45:59;101508.38;;;34.84;27.49
45523;BME280;31254;51.680;5.394;2023-06-10T06:48:26;101515.19;;;35.12;27.08
45523;BME280;31254;51.680;5.394;2023-06-10T06:50:53;101519.19;;;35.36;26.87
45523;BME280;31254;51.680;5.394;2023-06-10T06:53:20;101504.25;;;35.54;26.55
45523;BME280;31254;51.680;5.394;2023-06-10T06:55:50;101515.88;;;35.96;26.13
45523;BME280;31254;51.680;5.394;2023-06-10T06:58:20;101517.28;;;36.36;25.21
45523;BME280;31254;51.680;5.394;2023-06-10T07:00:49;101501.09;;;36.18;25.66
45523;BME280;31254;51.680;5.394;2023-06-10T07:03:18;101506.38;;;35.86;25.86
45523;BME280;31254;51.680;5.394;2023-06-10T07:05:47;101516.94;;;35.81;25.81
45523;BME280;31254;51.680;5.394;2023-06-10T07:08:13;101511.50;;;35.60;25.99
45523;BME280;31254;51.680;5.394;2023-06-10T07:10:40;101533.22;;;35.51;26.05
45523;BME280;31254;51.680;5.394;2023-06-10T07:13:11;101525.72;;;35.36;25.83
45523;BME280;31254;51.680;5.394;2023-06-10T07:15:40;101530.09;;;35.23;26.39
45523;BME280;31254;51.680;5.394;2023-06-10T07:18:09;101512.25;;;35.47;25.68
45523;BME280;31254;51.680;5.394;2023-06-10T07:20:36;101512.69;;;35.35;25.88
45523;BME280;31254;51.680;5.394;2023-06-10T07:23:06;101522.94;;;35.55;25.55
45523;BME280;31254;51.680;5.394;2023-06-10T07:25:35;101488.22;;;35.44;25.74
45523;BME280;31254;51.680;5.394;2023-06-10T07:28:01;101527.69;;;36.22;25.35
45523;BME280;31254;51.680;5.394;2023-06-10T07:30:30;101532.66;;;36.35;25.25
45523;BME280;31254;51.680;5.394;2023-06-10T07:32:57;101515.41;;;36.65;24.60
45523;BME280;31254;51.680;5.394;2023-06-10T07:35:25;101522.09;;;36.17;25.00
45523;BME280;31254;51.680;5.394;2023-06-10T07:37:51;101529.56;;;36.13;25.09
45523;BME280;31254;51.680;5.394;2023-06-10T07:40:20;101513.28;;;36.18;24.88
45523;BME280;31254;51.680;5.394;2023-06-10T07:42:50;101529.63;;;36.08;24.92
45523;BME280;31254;51.680;5.394;2023-06-10T07:45:16;101538.38;;;35.92;25.26
45523;BME280;31254;51.680;5.394;2023-06-10T07:47:43;101520.44;;;36.35;25.01
45523;BME280;31254;51.680;5.394;2023-06-10T07:50:10;101480.31;;;36.74;24.16
45523;BME280;31254;51.680;5.394;2023-06-10T07:52:37;101534.97;;;36.85;24.09
45523;BME280;31254;51.680;5.394;2023-06-10T07:55:04;101542.88;;;37.02;23.93
45523;BME280;31254;51.680;5.394;2023-06-10T07:57:31;101533.38;;;36.93;23.83
45523;BME280;31254;51.680;5.394;2023-06-10T08:00:03;101535.34;;;37.25;23.77
45523;BME280;31254;51.680;5.394;2023-06-10T08:02:30;101538.75;;;37.69;23.23
45523;BME280;31254;51.680;5.394;2023-06-10T08:05:00;101532.41;;;37.30;23.89
45523;BME280;31254;51.680;5.394;2023-06-10T08:07:27;101536.78;;;36.95;23.69
45523;BME280;31254;51.680;5.394;2023-06-10T08:09:54;101535.59;;;36.82;23.94
45523;BME280;31254;51.680;5.394;2023-06-10T08:12:20;101533.13;;;36.75;24.08
45523;BME280;31254;51.680;5.394;2023-06-10T08:14:47;101535.81;;;36.67;24.12
45523;BME280;31254;51.680;5.394;2023-06-10T08:17:14;101528.81;;;36.45;24.05
45523;BME280;31254;51.680;5.394;2023-06-10T08:19:40;101532.66;;;36.35;24.74
45523;BME280;31254;51.680;5.394;2023-06-10T08:22:09;101525.78;;;36.88;23.74
45523;BME280;31254;51.680;5.394;2023-06-10T08:24:38;101538.03;;;37.03;24.08
45523;BME280;31254;51.680;5.394;2023-06-10T08:27:08;101525.19;;;36.20;24.05
45523;BME280;31254;51.680;5.394;2023-06-10T08:29:34;101538.25;;;36.40;24.13
45523;BME280;31254;51.680;5.394;2023-06-10T08:32:01;101538.91;;;35.94;24.49
45523;BME280;31254;51.680;5.394;2023-06-10T08:34:28;101548.75;;;35.54;24.98
45523;BME280;31254;51.680;5.394;2023-06-10T08:37:00;101539.47;;;35.24;25.41
45523;BME280;31254;51.680;5.394;2023-06-10T08:39:29;101535.97;;;35.80;24.80
45523;BME280;31254;51.680;5.394;2023-06-10T08:42:35;101541.41;;;35.53;25.07
45523;BME280;31254;51.680;5.394;2023-06-10T08:45:07;101544.19;;;35.33;25.24
45523;BME280;31254;51.680;5.394;2023-06-10T08:47:35;101546.22;;;35.28;24.99
45523;BME280;31254;51.680;5.394;2023-06-10T08:50:06;101540.50;;;35.04;25.27
45523;BME280;31254;51.680;5.394;2023-06-10T08:52:42;101543.97;;;35.25;25.00
45523;BME280;31254;51.680;5.394;2023-06-10T08:55:23;101533.22;;;35.51;24.86
45523;BME280;31254;51.680;5.394;2023-06-10T08:57:59;101498.09;;;34.93;24.79
45523;BME280;31254;51.680;5.394;2023-06-10T09:00:30;101546.22;;;34.98;25.16
45523;BME280;31254;51.680;5.394;2023-06-10T09:03:00;101532.97;;;35.18;24.41
45523;BME280;31254;51.680;5.394;2023-06-10T09:05:33;101535.50;;;35.20;24.97
45523;BME280;31254;51.680;5.394;2023-06-10T09:08:01;101536.03;;;35.27;24.66
45523;BME280;31254;51.680;5.394;2023-06-10T09:10:28;101534.81;;;35.57;24.73
45523;BME280;31254;51.680;5.394;2023-06-10T09:12:55;101517.97;;;35.66;24.45
45523;BME280;31254;51.680;5.394;2023-06-10T09:15:25;101527.09;;;35.63;25.00
45523;BME280;31254;51.680;5.394;2023-06-10T09:17:52;101531.75;;;35.00;25.62
45523;BME280;31254;51.680;5.394;2023-06-10T09:20:22;101532.50;;;34.47;26.00
45523;BME280;31254;51.680;5.394;2023-06-10T09:22:49;101523.13;;;34.07;26.27
45523;BME280;31254;51.680;5.394;2023-06-10T09:25:16;101542.28;;;34.60;25.98
45523;BME280;31254;51.680;5.394;2023-06-10T09:27:48;101529.44;;;34.73;25.34
45523;BME280;31254;51.680;5.394;2023-06-10T09:30:27;101533.25;;;34.92;25.30
45523;BME280;31254;51.680;5.394;2023-06-10T09:33:00;101522.09;;;34.37;25.78
45523;BME280;31254;51.680;5.394;2023-06-10T09:35:29;101527.97;;;35.10;25.29
45523;BME280;31254;51.680;5.394;2023-06-10T09:37:58;101528.25;;;35.38;24.86
45523;BME280;31254;51.680;5.394;2023-06-10T09:40:25;101532.56;;;35.06;25.50
45523;BME280;31254;51.680;5.394;2023-06-10T09:42:56;101534.09;;;34.58;25.97
45523;BME280;31254;51.680;5.394;2023-06-10T09:45:25;101515.81;;;34.46;25.94
45523;BME280;31254;51.680;5.394;2023-06-10T09:47:54;101529.97;;;34.40;26.35
45523;BME280;31254;51.680;5.394;2023-06-10T09:50:22;101528.88;;;34.76;25.99
45523;BME280;31254;51.680;5.394;2023-06-10T09:52:52;101526.56;;;34.43;26.36
45523;BME280;31254;51.680;5.394;2023-06-10T09:55:21;101530.22;;;34.49;26.47
45523;BME280;31254;51.680;5.394;2023-06-10T09:57:53;101527.53;;;34.63;26.25
45523;BME280;31254;51.680;5.394;2023-06-10T10:00:22;101519.84;;;34.34;27.02
45523;BME280;31254;51.680;5.394;2023-06-10T10:02:50;101502.84;;;33.89;27.33
45523;BME280;31254;51.680;5.394;2023-06-10T10:05:23;101508.56;;;33.69;27.81
45523;BME280;31254;51.680;5.394;2023-06-10T10:07:50;101487.03;;;33.18;28.54
45523;BME280;31254;51.680;5.394;2023-06-10T10:10:19;101520.94;;;32.92;29.13
45523;BME280;31254;51.680;5.394;2023-06-10T10:12:47;101518.44;;;32.86;28.50
45523;BME280;31254;51.680;5.394;2023-06-10T10:15:17;101505.69;;;32.83;28.89
45523;BME280;31254;51.680;5.394;2023-06-10T10:18:06;101503.16;;;32.82;29.36
45523;BME280;31254;51.680;5.394;2023-06-10T10:20:35;101512.22;;;32.73;29.01
45523;BME280;31254;51.680;5.394;2023-06-10T10:23:04;101508.50;;;32.52;29.41
45523;BME280;31254;51.680;5.394;2023-06-10T10:25:38;101496.94;;;32.54;29.42
45523;BME280;31254;51.680;5.394;2023-06-10T10:28:11;101495.81;;;32.34;29.73
45523;BME280;31254;51.680;5.394;2023-06-10T10:31:07;101468.38;;;31.94;30.01
45523;BME280;31254;51.680;5.394;2023-06-10T10:33:51;101496.00;;;31.97;30.09
45523;BME280;31254;51.680;5.394;2023-06-10T10:36:19;101491.47;;;31.90;30.07
45523;BME280;31254;51.680;5.394;2023-06-10T10:38:50;101494.63;;;31.99;29.98
45523;BME280;31254;51.680;5.394;2023-06-10T10:41:19;101502.28;;;32.19;30.40
45523;BME280;31254;51.680;5.394;2023-06-10T10:43:47;101496.94;;;32.49;30.24
45523;BME280;31254;51.680;5.394;2023-06-10T10:46:16;101496.94;;;32.54;30.24
45523;BME280;31254;51.680;5.394;2023-06-10T10:48:44;101498.94;;;32.53;29.98
45523;BME280;31254;51.680;5.394;2023-06-10T10:51:15;101498.03;;;32.17;29.60
45523;BME280;31254;51.680;5.394;2023-06-10T10:53:42;101495.22;;;32.12;29.01
45523;BME280;31254;51.680;5.394;2023-06-10T10:56:16;101494.03;;;32.02;29.70
45523;BME280;31254;51.680;5.394;2023-06-10T10:59:04;101496.09;;;32.33;29.51
45523;BME280;31254;51.680;5.394;2023-06-10T11:01:42;101479.16;;;32.58;29.41
45523;BME280;31254;51.680;5.394;2023-06-10T11:04:12;101482.28;;;32.72;28.95
45523;BME280;31254;51.680;5.394;2023-06-10T11:06:39;101485.97;;;32.68;28.52
45523;BME280;31254;51.680;5.394;2023-06-10T11:09:26;101487.63;;;32.53;29.38
45523;BME280;31254;51.680;5.394;2023-06-10T11:11:59;101470.69;;;32.58;28.57
45523;BME280;31254;51.680;5.394;2023-06-10T11:14:29;101461.38;;;32.73;28.90
45523;BME280;31254;51.680;5.394;2023-06-10T11:16:58;101477.78;;;32.71;28.79
45523;BME280;31254;51.680;5.394;2023-06-10T11:19:34;101463.06;;;32.79;28.80
45523;BME280;31254;51.680;5.394;2023-06-10T11:22:06;101456.53;;;32.94;28.54
45523;BME280;31254;51.680;5.394;2023-06-10T11:24:33;101475.22;;;32.85;28.14
45523;BME280;31254;51.680;5.394;2023-06-10T11:32:33;101455.69;;;32.99;28.17
45523;BME280;31254;51.680;5.394;2023-06-10T11:35:06;101460.47;;;33.04;27.78
45523;BME280;31254;51.680;5.394;2023-06-10T11:37:34;101479.44;;;32.98;28.13
45523;BME280;31254;51.680;5.394;2023-06-10T11:40:02;101471.22;;;33.02;27.54
45523;BME280;31254;51.680;5.394;2023-06-10T11:42:29;101462.66;;;33.32;26.78
45523;BME280;31254;51.680;5.394;2023-06-10T11:44:56;101459.88;;;33.27;27.13
45523;BME280;31254;51.680;5.394;2023-06-10T11:47:22;101452.25;;;33.23;27.33
45523;BME280;31254;51.680;5.394;2023-06-10T11:49:56;101470.88;;;33.24;26.97
45523;BME280;31254;51.680;5.394;2023-06-10T11:52:30;101389.94;;;32.73;27.12
45523;BME280;31254;51.680;5.394;2023-06-10T11:55:00;101448.34;;;33.03;26.49
45523;BME280;31254;51.680;5.394;2023-06-10T11:57:26;101454.53;;;33.05;27.29
45523;BME280;31254;51.680;5.394;2023-06-10T11:59:56;101455.38;;;33.21;26.35
45523;BME280;31254;51.680;5.394;2023-06-10T12:02:22;101460.41;;;33.34;26.59
45523;BME280;31254;51.680;5.394;2023-06-10T12:04:50;101452.19;;;33.33;26.44
45523;BME280;31254;51.680;5.394;2023-06-10T12:07:20;101446.78;;;33.47;26.19
45523;BME280;31254;51.680;5.394;2023-06-10T12:09:58;101430.66;;;33.47;25.92
45523;BME280;31254;51.680;5.394;2023-06-10T12:12:44;101443.13;;;33.41;26.16
45523;BME280;31254;51.680;5.394;2023-06-10T12:15:23;101435.19;;;33.43;25.91
45523;BME280;31254;51.680;5.394;2023-06-10T12:17:53;101428.75;;;33.32;26.85
45523;BME280;31254;51.680;5.394;2023-06-10T12:20:27;101379.69;;;32.97;26.26
45523;BME280;31254;51.680;5.394;2023-06-10T12:22:59;101433.22;;;33.44;26.61
45523;BME280;31254;51.680;5.394;2023-06-10T12:25:28;101427.22;;;33.56;26.20
45523;BME280;31254;51.680;5.394;2023-06-10T12:27:57;101437.31;;;33.72;26.09
45523;BME280;31254;51.680;5.394;2023-06-10T12:30:27;101425.72;;;33.74;26.06
45523;BME280;31254;51.680;5.394;2023-06-10T12:32:55;101425.09;;;33.82;26.33
45523;BME280;31254;51.680;5.394;2023-06-10T12:35:23;101435.16;;;33.98;25.52
45523;BME280;31254;51.680;5.394;2023-06-10T12:38:02;101418.66;;;33.76;25.86
45523;BME280;31254;51.680;5.394;2023-06-10T12:40:38;101425.16;;;33.72;25.67
45523;BME280;31254;51.680;5.394;2023-06-10T12:43:07;101415.25;;;33.69;26.14
45523;BME280;31254;51.680;5.394;2023-06-10T12:45:35;101429.34;;;33.84;25.52
45523;BME280;31254;51.680;5.394;2023-06-10T12:50:38;101423.28;;;33.46;26.19
45523;BME280;31254;51.680;5.394;2023-06-10T12:53:08;101427.34;;;33.30;26.09
45523;BME280;31254;51.680;5.394;2023-06-10T12:55:35;101407.06;;;33.07;25.90
45523;BME280;31254;51.680;5.394;2023-06-10T12:58:04;101424.38;;;33.56;25.69
45523;BME280;31254;51.680;5.394;2023-06-10T13:00:31;101416.28;;;33.88;25.09
45523;BME280;31254;51.680;5.394;2023-06-10T13:03:01;101431.00;;;33.85;25.48
45523;BME280;31254;51.680;5.394;2023-06-10T13:05:29;101404.47;;;33.26;25.95
45523;BME280;31254;51.680;5.394;2023-06-10T13:07:56;101423.16;;;33.17;26.42